Bookmark and Share
Track history (hours):
 

Swift Arrow

More information available from US FCC via Universal Licensing System and Coast Guard Vessel Documentation Center.

Last reported at 2014-Apr-07 19:33 UTC. Time now 2014-Apr-19 17:10 UTC.
Position N 48°09' W 123°19'.
Warning: this ship's position is 11 days out of date.

Type: Port tender. MMSI: 369021000.

NotesDate/timePositionNaut miles runAvg speedWind from/ knotsBaromVisibWave heightAir tempDewpointWater temp
2014-Apr-07 19:33N 48°09' W 123°19'3311.1
2014-Apr-07 16:32N 47°56' W 122°33'1313.2
2014-Apr-07 15:34N 47°43' W 122°28'1313.1
2014-Apr-07 14:34N 47°30' W 122°27'1312.7
2014-Apr-07 13:34N 47°18' W 122°27'2 0.1
2014-Apr-06 01:25N 47°15' W 122°26'1 0.8
2014-Apr-06 00:33N 47°16' W 122°26'1 0.0
2014-Apr-04 18:33N 47°15' W 122°26'0 0.0
2014-Apr-02 19:27N 47°15' W 122°26'2 2.0
2014-Apr-02 18:33N 47°17' W 122°26'1 0.6
2014-Apr-02 17:33N 47°16' W 122°26'1 0.1
2014-Apr-02 08:11N 47°15' W 122°26'0 0.3
2014-Apr-02 07:33N 47°15' W 122°26'5 5.2
2014-Apr-02 06:33N 47°20' W 122°29'0 0.2
2014-Apr-02 05:33N 47°20' W 122°28'0 0.2
2014-Apr-02 04:33N 47°20' W 122°29'0 0.1
2014-Apr-02 03:33N 47°20' W 122°29'5 4.6
2014-Apr-02 02:24N 47°15' W 122°26'1 0.8
2014-Apr-02 00:34N 47°17' W 122°27'2 0.7
2014-Apr-01 22:26N 47°17' W 122°24'2 1.8
2014-Apr-01 21:15N 47°15' W 122°26'0 0.0
2014-Mar-31 23:22N 47°15' W 122°26'0 0.6
2014-Mar-31 22:34N 47°16' W 122°26'5 4.8
2014-Mar-31 21:34N 47°20' W 122°29'4 3.8
2014-Mar-31 20:33N 47°17' W 122°26'2 0.5
2014-Mar-31 17:30N 47°15' W 122°26'2 1.7
2014-Mar-31 16:33N 47°17' W 122°26'0 0.1
2014-Mar-31 15:33N 47°17' W 122°26'0 0.0
2014-Mar-31 13:33N 47°17' W 122°26'2 0.2
2014-Mar-31 03:10N 47°15' W 122°26'0 0.0
2014-Mar-30 17:11N 47°15' W 122°26'0 0.5
2014-Mar-30 16:33N 47°15' W 122°26'1 0.5
2014-Mar-30 13:33N 47°17' W 122°26'2 0.2
2014-Mar-30 03:17N 47°15' W 122°26'0 0.0
2014-Mar-29 20:03N 47°15' W 122°26'0 0.0
2014-Mar-29 14:06N 47°15' W 122°26'2 3.1
2014-Mar-29 13:33N 47°17' W 122°26'2 0.2
2014-Mar-29 03:27N 47°15' W 122°26'  

Dump ship's entire track history

sailing weather and tide predictions

Swift Arrow — WAFK — position and weather